sensor_id;sensor_type;location;lat;lon;timestamp;pressure;altitude;pressure_sealevel;temperature;humidity
44198;BME280;30157;55.512;37.764;2023-07-02T00:01:10;98314.72;;;17.29;82.59
44198;BME280;30157;55.512;37.764;2023-07-02T00:03:39;98282.25;;;17.16;82.19
44198;BME280;30157;55.512;37.764;2023-07-02T00:06:05;98307.59;;;17.31;82.33
44198;BME280;30157;55.512;37.764;2023-07-02T00:08:31;98271.97;;;17.12;82.42
44198;BME280;30157;55.512;37.764;2023-07-02T00:10:57;98307.19;;;17.23;82.41
44198;BME280;30157;55.512;37.764;2023-07-02T00:13:22;98209.38;;;16.58;82.19
44198;BME280;30157;55.512;37.764;2023-07-02T00:15:48;98247.44;;;16.82;82.70
44198;BME280;30157;55.512;37.764;2023-07-02T00:18:14;98307.13;;;17.08;82.82
44198;BME280;30157;55.512;37.764;2023-07-02T00:20:43;98263.22;;;16.80;83.18
44198;BME280;30157;55.512;37.764;2023-07-02T00:23:09;98293.03;;;16.95;83.08
44198;BME280;30157;55.512;37.764;2023-07-02T00:25:36;98313.44;;;17.04;83.16
44198;BME280;30157;55.512;37.764;2023-07-02T00:28:02;98298.41;;;16.92;83.37
44198;BME280;30157;55.512;37.764;2023-07-02T00:30:29;98298.06;;;16.98;83.40
44198;BME280;30157;55.512;37.764;2023-07-02T00:32:56;98289.44;;;16.96;83.23
44198;BME280;30157;55.512;37.764;2023-07-02T00:35:22;98300.69;;;16.98;83.13
44198;BME280;30157;55.512;37.764;2023-07-02T00:37:49;98263.91;;;16.84;82.94
44198;BME280;30157;55.512;37.764;2023-07-02T00:40:15;98320.56;;;17.18;82.89
44198;BME280;30157;55.512;37.764;2023-07-02T00:42:40;98269.13;;;16.84;82.86
44198;BME280;30157;55.512;37.764;2023-07-02T00:45:06;98312.38;;;17.08;82.95
44198;BME280;30157;55.512;37.764;2023-07-02T00:47:34;98323.28;;;17.01;83.01
44198;BME280;30157;55.512;37.764;2023-07-02T00:50:01;98315.91;;;16.91;83.21
44198;BME280;30157;55.512;37.764;2023-07-02T00:52:33;98304.72;;;16.88;83.38
44198;BME280;30157;55.512;37.764;2023-07-02T00:54:59;98306.50;;;16.87;83.33
44198;BME280;30157;55.512;37.764;2023-07-02T00:57:24;98328.00;;;16.94;83.67
44198;BME280;30157;55.512;37.764;2023-07-02T00:59:58;98323.97;;;16.87;83.97
44198;BME280;30157;55.512;37.764;2023-07-02T01:02:33;98311.81;;;16.70;84.37
44198;BME280;30157;55.512;37.764;2023-07-02T01:04:59;98299.38;;;16.57;84.44
44198;BME280;30157;55.512;37.764;2023-07-02T01:07:25;98267.53;;;16.32;84.45
44198;BME280;30157;55.512;37.764;2023-07-02T01:09:52;98271.22;;;16.29;85.02
44198;BME280;30157;55.512;37.764;2023-07-02T01:12:18;98348.72;;;16.65;85.05
44198;BME280;30157;55.512;37.764;2023-07-02T01:14:51;98289.75;;;16.24;85.34
44198;BME280;30157;55.512;37.764;2023-07-02T01:17:19;98318.41;;;16.43;85.73
44198;BME280;30157;55.512;37.764;2023-07-02T01:19:50;98343.38;;;16.51;86.00
44198;BME280;30157;55.512;37.764;2023-07-02T01:22:22;98288.38;;;16.17;85.83
44198;BME280;30157;55.512;37.764;2023-07-02T01:24:49;98323.66;;;16.43;85.86
44198;BME280;30157;55.512;37.764;2023-07-02T01:27:16;98331.91;;;16.53;85.85
44198;BME280;30157;55.512;37.764;2023-07-02T01:29:43;98318.28;;;16.46;85.63
44198;BME280;30157;55.512;37.764;2023-07-02T01:32:13;98281.28;;;16.19;85.65
44198;BME280;30157;55.512;37.764;2023-07-02T01:34:39;98267.22;;;16.04;86.03
44198;BME280;30157;55.512;37.764;2023-07-02T01:37:08;98344.91;;;16.55;85.82
44198;BME280;30157;55.512;37.764;2023-07-02T01:39:35;98311.13;;;16.33;85.77
44198;BME280;30157;55.512;37.764;2023-07-02T01:42:14;98339.22;;;16.46;85.78
44198;BME280;30157;55.512;37.764;2023-07-02T01:44:46;98350.28;;;16.52;85.80
44198;BME280;30157;55.512;37.764;2023-07-02T01:47:12;98335.91;;;16.43;86.02
44198;BME280;30157;55.512;37.764;2023-07-02T01:49:38;98340.38;;;16.41;85.95
44198;BME280;30157;55.512;37.764;2023-07-02T01:52:05;98331.16;;;16.34;86.09
44198;BME280;30157;55.512;37.764;2023-07-02T01:54:34;98364.31;;;16.51;86.31
44198;BME280;30157;55.512;37.764;2023-07-02T01:57:00;98357.56;;;16.46;86.53
44198;BME280;30157;55.512;37.764;2023-07-02T01:59:26;98361.56;;;16.36;87.23
44198;BME280;30157;55.512;37.764;2023-07-02T02:01:52;98287.97;;;15.91;87.11
44198;BME280;30157;55.512;37.764;2023-07-02T02:04:18;98356.78;;;16.44;87.15
44198;BME280;30157;55.512;37.764;2023-07-02T02:06:44;98299.53;;;16.21;87.18
44198;BME280;30157;55.512;37.764;2023-07-02T02:09:11;98348.63;;;16.51;87.07
44198;BME280;30157;55.512;37.764;2023-07-02T02:11:39;98293.53;;;16.19;86.86
44198;BME280;30157;55.512;37.764;2023-07-02T02:14:07;98355.78;;;16.47;87.22
44198;BME280;30157;55.512;37.764;2023-07-02T02:16:33;98353.84;;;16.51;87.24
44198;BME280;30157;55.512;37.764;2023-07-02T02:19:00;98336.91;;;16.40;87.50
44198;BME280;30157;55.512;37.764;2023-07-02T02:21:26;98323.47;;;16.31;87.59
44198;BME280;30157;55.512;37.764;2023-07-02T02:23:52;98348.91;;;16.44;87.68
44198;BME280;30157;55.512;37.764;2023-07-02T02:26:20;98322.94;;;16.24;87.90
44198;BME280;30157;55.512;37.764;2023-07-02T02:28:48;98371.19;;;16.53;87.90
44198;BME280;30157;55.512;37.764;2023-07-02T02:31:17;98373.63;;;16.56;88.08
44198;BME280;30157;55.512;37.764;2023-07-02T02:33:43;98366.38;;;16.61;87.82
44198;BME280;30157;55.512;37.764;2023-07-02T02:36:09;98346.91;;;16.50;88.16
44198;BME280;30157;55.512;37.764;2023-07-02T02:38:35;98355.91;;;16.61;88.10
44198;BME280;30157;55.512;37.764;2023-07-02T02:41:03;98351.06;;;16.54;88.38
44198;BME280;30157;55.512;37.764;2023-07-02T02:43:34;98292.75;;;16.17;88.55
44198;BME280;30157;55.512;37.764;2023-07-02T02:46:00;98203.56;;;15.70;88.61
44198;BME280;30157;55.512;37.764;2023-07-02T02:48:26;98337.72;;;16.58;88.64
44198;BME280;30157;55.512;37.764;2023-07-02T02:50:52;98346.78;;;16.69;88.71
44198;BME280;30157;55.512;37.764;2023-07-02T02:53:18;98346.97;;;16.66;88.59
44198;BME280;30157;55.512;37.764;2023-07-02T02:55:44;98364.00;;;16.90;88.59
44198;BME280;30157;55.512;37.764;2023-07-02T02:58:10;98318.41;;;16.77;88.25
44198;BME280;30157;55.512;37.764;2023-07-02T03:00:36;98298.31;;;16.77;87.82
44198;BME280;30157;55.512;37.764;2023-07-02T03:03:01;98356.41;;;17.34;87.49
44198;BME280;30157;55.512;37.764;2023-07-02T03:05:28;98353.09;;;17.46;86.94
44198;BME280;30157;55.512;37.764;2023-07-02T03:07:54;98345.47;;;17.57;86.11
44198;BME280;30157;55.512;37.764;2023-07-02T03:10:20;98362.59;;;17.79;85.91
44198;BME280;30157;55.512;37.764;2023-07-02T03:12:47;98357.63;;;17.74;85.63
44198;BME280;30157;55.512;37.764;2023-07-02T03:15:13;98375.72;;;17.95;85.03
44198;BME280;30157;55.512;37.764;2023-07-02T03:17:39;98375.63;;;17.96;84.96
44198;BME280;30157;55.512;37.764;2023-07-02T03:20:05;98182.00;;;16.80;84.79
44198;BME280;30157;55.512;37.764;2023-07-02T03:22:33;98370.47;;;17.95;84.25
44198;BME280;30157;55.512;37.764;2023-07-02T03:25:00;98383.22;;;18.01;83.76
44198;BME280;30157;55.512;37.764;2023-07-02T03:27:26;98376.66;;;17.94;84.29
44198;BME280;30157;55.512;37.764;2023-07-02T03:29:52;98383.16;;;17.87;84.12
44198;BME280;30157;55.512;37.764;2023-07-02T03:32:18;98364.72;;;17.72;84.43
44198;BME280;30157;55.512;37.764;2023-07-02T03:34:44;98339.91;;;17.48;84.39
44198;BME280;30157;55.512;37.764;2023-07-02T03:37:10;98383.69;;;17.77;84.47
44198;BME280;30157;55.512;37.764;2023-07-02T03:39:35;98379.94;;;17.82;84.62
44198;BME280;30157;55.512;37.764;2023-07-02T03:42:01;98394.38;;;17.74;84.48
44198;BME280;30157;55.512;37.764;2023-07-02T03:44:27;98396.03;;;17.75;84.60
44198;BME280;30157;55.512;37.764;2023-07-02T03:46:53;98388.94;;;17.77;84.25
44198;BME280;30157;55.512;37.764;2023-07-02T03:49:19;98340.75;;;17.48;83.98
44198;BME280;30157;55.512;37.764;2023-07-02T03:51:45;98252.25;;;16.89;84.13
44198;BME280;30157;55.512;37.764;2023-07-02T03:54:10;98391.03;;;17.87;84.10
44198;BME280;30157;55.512;37.764;2023-07-02T03:56:36;98382.19;;;17.88;83.65
44198;BME280;30157;55.512;37.764;2023-07-02T03:59:02;98368.78;;;17.78;83.83
44198;BME280;30157;55.512;37.764;2023-07-02T04:01:28;98403.03;;;18.07;83.30
44198;BME280;30157;55.512;37.764;2023-07-02T04:03:54;98379.94;;;17.98;82.86
44198;BME280;30157;55.512;37.764;2023-07-02T04:06:20;98351.00;;;17.83;82.70
44198;BME280;30157;55.512;37.764;2023-07-02T04:08:46;98282.53;;;17.57;81.44
44198;BME280;30157;55.512;37.764;2023-07-02T04:11:12;98412.59;;;18.53;81.37
44198;BME280;30157;55.512;37.764;2023-07-02T04:13:38;98391.75;;;18.50;81.21
44198;BME280;30157;55.512;37.764;2023-07-02T04:16:04;98356.19;;;18.29;80.31
44198;BME280;30157;55.512;37.764;2023-07-02T04:18:30;98409.44;;;18.62;79.76
44198;BME280;30157;55.512;37.764;2023-07-02T04:20:56;98398.06;;;18.61;79.76
44198;BME280;30157;55.512;37.764;2023-07-02T04:23:22;98396.66;;;18.85;79.09
44198;BME280;30157;55.512;37.764;2023-07-02T04:25:48;98385.44;;;18.97;78.85
44198;BME280;30157;55.512;37.764;2023-07-02T04:28:14;98398.28;;;19.43;77.66
44198;BME280;30157;55.512;37.764;2023-07-02T04:30:39;98399.81;;;20.15;76.37
44198;BME280;30157;55.512;37.764;2023-07-02T04:33:05;98424.44;;;20.93;73.44
44198;BME280;30157;55.512;37.764;2023-07-02T04:35:31;98413.25;;;21.65;70.35
44198;BME280;30157;55.512;37.764;2023-07-02T04:37:57;98414.53;;;22.19;68.80
44198;BME280;30157;55.512;37.764;2023-07-02T04:40:24;98402.38;;;22.41;65.92
44198;BME280;30157;55.512;37.764;2023-07-02T04:42:49;98408.91;;;22.59;65.49
44198;BME280;30157;55.512;37.764;2023-07-02T04:45:26;98369.97;;;22.50;64.84
44198;BME280;30157;55.512;37.764;2023-07-02T04:47:57;98413.38;;;23.04;63.73
44198;BME280;30157;55.512;37.764;2023-07-02T04:50:26;98411.09;;;23.22;62.10
44198;BME280;30157;55.512;37.764;2023-07-02T04:52:52;98396.06;;;22.66;62.51
44198;BME280;30157;55.512;37.764;2023-07-02T04:55:18;98414.91;;;22.61;63.01
44198;BME280;30157;55.512;37.764;2023-07-02T04:57:45;98410.84;;;22.69;62.99
44198;BME280;30157;55.512;37.764;2023-07-02T05:00:11;98415.34;;;22.44;63.38
44198;BME280;30157;55.512;37.764;2023-07-02T05:02:38;98433.69;;;22.81;62.73
44198;BME280;30157;55.512;37.764;2023-07-02T05:05:04;98418.69;;;23.27;61.40
44198;BME280;30157;55.512;37.764;2023-07-02T05:07:30;98423.44;;;23.88;60.19
44198;BME280;30157;55.512;37.764;2023-07-02T05:09:56;98425.44;;;24.40;59.25
44198;BME280;30157;55.512;37.764;2023-07-02T05:12:23;98432.78;;;24.78;57.94
44198;BME280;30157;55.512;37.764;2023-07-02T05:14:48;98273.44;;;23.87;57.38
44198;BME280;30157;55.512;37.764;2023-07-02T05:17:14;98416.03;;;23.82;58.52
44198;BME280;30157;55.512;37.764;2023-07-02T05:19:41;98380.53;;;22.84;60.26
44198;BME280;30157;55.512;37.764;2023-07-02T05:22:08;98416.59;;;22.96;60.40
44198;BME280;30157;55.512;37.764;2023-07-02T05:24:33;98423.22;;;23.47;60.41
44198;BME280;30157;55.512;37.764;2023-07-02T05:26:59;98406.09;;;23.63;59.13
44198;BME280;30157;55.512;37.764;2023-07-02T05:29:25;98416.34;;;24.00;58.21
44198;BME280;30157;55.512;37.764;2023-07-02T05:31:51;98410.72;;;23.82;58.85
44198;BME280;30157;55.512;37.764;2023-07-02T05:34:17;98419.03;;;24.21;57.72
44198;BME280;30157;55.512;37.764;2023-07-02T05:36:43;98418.38;;;24.29;57.14
44198;BME280;30157;55.512;37.764;2023-07-02T05:39:08;98414.75;;;24.51;56.51
44198;BME280;30157;55.512;37.764;2023-07-02T05:41:34;98427.13;;;24.62;56.41
44198;BME280;30157;55.512;37.764;2023-07-02T05:44:00;98436.16;;;24.80;55.82
44198;BME280;30157;55.512;37.764;2023-07-02T05:46:26;98432.13;;;24.86;55.17
44198;BME280;30157;55.512;37.764;2023-07-02T05:48:52;98418.19;;;24.84;54.67
44198;BME280;30157;55.512;37.764;2023-07-02T05:51:21;98442.94;;;24.94;54.32
44198;BME280;30157;55.512;37.764;2023-07-02T05:53:47;98421.00;;;25.23;53.29
44198;BME280;30157;55.512;37.764;2023-07-02T05:56:13;98412.56;;;25.59;52.42
44198;BME280;30157;55.512;37.764;2023-07-02T05:58:39;98423.00;;;26.11;51.89
44198;BME280;30157;55.512;37.764;2023-07-02T06:01:04;98433.56;;;26.60;50.43
44198;BME280;30157;55.512;37.764;2023-07-02T06:03:32;98431.09;;;26.96;49.46
44198;BME280;30157;55.512;37.764;2023-07-02T06:05:57;98399.56;;;27.01;47.71
44198;BME280;30157;55.512;37.764;2023-07-02T06:08:23;98429.88;;;27.18;48.01
44198;BME280;30157;55.512;37.764;2023-07-02T06:10:49;98424.13;;;26.85;49.34
44198;BME280;30157;55.512;37.764;2023-07-02T06:13:15;98413.25;;;25.10;53.01
44198;BME280;30157;55.512;37.764;2023-07-02T06:15:41;98378.13;;;24.87;53.34
44198;BME280;30157;55.512;37.764;2023-07-02T06:18:08;98439.44;;;25.25;53.95
44198;BME280;30157;55.512;37.764;2023-07-02T06:20:33;98403.06;;;25.56;52.70
44198;BME280;30157;55.512;37.764;2023-07-02T06:22:59;98419.94;;;25.36;52.53
44198;BME280;30157;55.512;37.764;2023-07-02T06:25:25;98429.16;;;25.41;52.06
44198;BME280;30157;55.512;37.764;2023-07-02T06:27:51;98423.06;;;25.20;52.22
44198;BME280;30157;55.512;37.764;2023-07-02T06:30:21;98446.47;;;25.96;49.84
44198;BME280;30157;55.512;37.764;2023-07-02T06:32:47;98399.16;;;25.99;48.94
44198;BME280;30157;55.512;37.764;2023-07-02T06:35:12;98442.09;;;25.75;49.77
44198;BME280;30157;55.512;37.764;2023-07-02T06:37:38;98431.22;;;26.47;48.25
44198;BME280;30157;55.512;37.764;2023-07-02T06:40:05;98430.38;;;27.04;46.92
44198;BME280;30157;55.512;37.764;2023-07-02T06:42:31;98427.66;;;27.13;46.75
44198;BME280;30157;55.512;37.764;2023-07-02T06:44:58;98449.13;;;26.35;48.28
44198;BME280;30157;55.512;37.764;2023-07-02T06:47:24;98449.31;;;25.54;50.14
44198;BME280;30157;55.512;37.764;2023-07-02T06:49:52;98376.47;;;24.44;50.87
44198;BME280;30157;55.512;37.764;2023-07-02T06:52:17;98397.63;;;25.68;49.23
44198;BME280;30157;55.512;37.764;2023-07-02T06:54:43;98440.75;;;26.30;48.35
44198;BME280;30157;55.512;37.764;2023-07-02T06:57:09;98430.03;;;26.69;47.53
44198;BME280;30157;55.512;37.764;2023-07-02T06:59:38;98405.75;;;25.76;47.81
44198;BME280;30157;55.512;37.764;2023-07-02T07:02:03;98429.94;;;25.32;49.73
44198;BME280;30157;55.512;37.764;2023-07-02T07:04:29;98430.09;;;25.81;48.44
44198;BME280;30157;55.512;37.764;2023-07-02T07:06:55;98446.22;;;26.28;47.83
44198;BME280;30157;55.512;37.764;2023-07-02T07:09:21;98424.59;;;25.53;49.09
44198;BME280;30157;55.512;37.764;2023-07-02T07:11:47;98439.88;;;25.90;48.56
44198;BME280;30157;55.512;37.764;2023-07-02T07:14:13;98446.44;;;25.86;48.37
44198;BME280;30157;55.512;37.764;2023-07-02T07:16:39;98464.09;;;26.56;46.95
44198;BME280;30157;55.512;37.764;2023-07-02T07:19:05;98454.09;;;26.97;44.10
44198;BME280;30157;55.512;37.764;2023-07-02T07:21:30;98447.88;;;26.39;45.98
44198;BME280;30157;55.512;37.764;2023-07-02T07:23:56;98459.63;;;27.13;44.96
44198;BME280;30157;55.512;37.764;2023-07-02T07:26:22;98439.84;;;27.72;44.02
44198;BME280;30157;55.512;37.764;2023-07-02T07:28:48;98444.91;;;27.93;40.75
44198;BME280;30157;55.512;37.764;2023-07-02T07:31:14;98451.06;;;28.29;42.37
44198;BME280;30157;55.512;37.764;2023-07-02T07:33:40;98447.31;;;28.40;41.18
44198;BME280;30157;55.512;37.764;2023-07-02T07:36:06;98426.13;;;28.12;40.71
44198;BME280;30157;55.512;37.764;2023-07-02T07:38:32;98460.91;;;27.65;42.62
44198;BME280;30157;55.512;37.764;2023-07-02T07:40:57;98440.44;;;28.11;42.38
44198;BME280;30157;55.512;37.764;2023-07-02T07:43:23;98444.78;;;28.57;39.82
44198;BME280;30157;55.512;37.764;2023-07-02T07:45:49;98395.69;;;27.69;40.25
44198;BME280;30157;55.512;37.764;2023-07-02T07:48:15;98401.00;;;27.23;41.90
44198;BME280;30157;55.512;37.764;2023-07-02T07:50:40;98396.91;;;26.54;42.18
44198;BME280;30157;55.512;37.764;2023-07-02T07:53:06;98463.31;;;25.56;45.14
44198;BME280;30157;55.512;37.764;2023-07-02T07:55:32;98470.16;;;24.65;47.61
44198;BME280;30157;55.512;37.764;2023-07-02T07:57:58;98423.00;;;23.39;49.54
44198;BME280;30157;55.512;37.764;2023-07-02T08:00:23;98471.97;;;23.34;50.43
44198;BME280;30157;55.512;37.764;2023-07-02T08:02:51;98429.34;;;22.80;51.21
44198;BME280;30157;55.512;37.764;2023-07-02T08:05:18;98447.03;;;22.79;51.98
44198;BME280;30157;55.512;37.764;2023-07-02T08:07:43;98447.75;;;22.70;52.18
44198;BME280;30157;55.512;37.764;2023-07-02T08:10:09;98462.66;;;22.94;52.29
44198;BME280;30157;55.512;37.764;2023-07-02T08:12:35;98438.84;;;22.94;52.76
44198;BME280;30157;55.512;37.764;2023-07-02T08:15:02;98443.22;;;23.06;51.70
44198;BME280;30157;55.512;37.764;2023-07-02T08:17:30;98450.00;;;24.42;49.18
44198;BME280;30157;55.512;37.764;2023-07-02T08:19:57;98416.09;;;24.03;49.49
44198;BME280;30157;55.512;37.764;2023-07-02T08:22:23;98458.03;;;24.94;48.20
44198;BME280;30157;55.512;37.764;2023-07-02T08:24:49;98467.03;;;26.53;45.17
44198;BME280;30157;55.512;37.764;2023-07-02T08:27:16;98453.72;;;27.93;43.14
44198;BME280;30157;55.512;37.764;2023-07-02T08:29:47;98449.06;;;27.22;42.98
44198;BME280;30157;55.512;37.764;2023-07-02T08:32:14;98460.50;;;25.57;45.81
44198;BME280;30157;55.512;37.764;2023-07-02T08:34:40;98471.09;;;24.86;47.10
44198;BME280;30157;55.512;37.764;2023-07-02T08:37:06;98457.34;;;24.17;48.60
44198;BME280;30157;55.512;37.764;2023-07-02T08:39:31;98473.53;;;24.03;49.52
44198;BME280;30157;55.512;37.764;2023-07-02T08:41:57;98472.03;;;23.66;49.71
44198;BME280;30157;55.512;37.764;2023-07-02T08:44:23;98468.19;;;23.70;49.69
44198;BME280;30157;55.512;37.764;2023-07-02T08:46:50;98475.25;;;23.81;49.74
44198;BME280;30157;55.512;37.764;2023-07-02T08:49:21;98469.53;;;25.04;47.65
44198;BME280;30157;55.512;37.764;2023-07-02T08:51:47;98451.66;;;25.47;47.09
44198;BME280;30157;55.512;37.764;2023-07-02T08:54:13;98446.16;;;25.99;45.56
44198;BME280;30157;55.512;37.764;2023-07-02T08:56:40;98466.63;;;26.08;45.06
44198;BME280;30157;55.512;37.764;2023-07-02T08:59:07;98464.72;;;27.35;43.21
44198;BME280;30157;55.512;37.764;2023-07-02T09:01:45;98449.16;;;28.40;40.62
44198;BME280;30157;55.512;37.764;2023-07-02T09:04:21;98401.88;;;29.03;39.13
44198;BME280;30157;55.512;37.764;2023-07-02T09:07:02;98415.78;;;29.65;37.30
44198;BME280;30157;55.512;37.764;2023-07-02T09:09:28;98456.22;;;28.93;38.61
44198;BME280;30157;55.512;37.764;2023-07-02T09:11:54;98450.63;;;28.34;38.11
44198;BME280;30157;55.512;37.764;2023-07-02T09:14:30;98397.69;;;27.67;39.53
44198;BME280;30157;55.512;37.764;2023-07-02T09:17:06;98460.06;;;27.46;40.27
44198;BME280;30157;55.512;37.764;2023-07-02T09:19:34;98370.19;;;26.93;40.89
44198;BME280;30157;55.512;37.764;2023-07-02T09:22:01;98429.16;;;26.98;41.99
44198;BME280;30157;55.512;37.764;2023-07-02T09:24:29;98459.75;;;26.74;42.51
44198;BME280;30157;55.512;37.764;2023-07-02T09:27:00;98448.44;;;26.33;42.57
44198;BME280;30157;55.512;37.764;2023-07-02T09:29:31;98453.84;;;26.02;42.12
44198;BME280;30157;55.512;37.764;2023-07-02T09:32:02;98459.09;;;25.53;42.63
44198;BME280;30157;55.512;37.764;2023-07-02T09:34:30;98413.50;;;24.97;43.00
44198;BME280;30157;55.512;37.764;2023-07-02T09:36:57;98478.28;;;25.26;43.26
44198;BME280;30157;55.512;37.764;2023-07-02T09:39:30;98483.16;;;25.21;43.58
44198;BME280;30157;55.512;37.764;2023-07-02T09:41:57;98372.72;;;24.25;44.28
44198;BME280;30157;55.512;37.764;2023-07-02T09:44:34;98466.94;;;24.51;44.98
44198;BME280;30157;55.512;37.764;2023-07-02T09:47:04;98485.47;;;24.29;46.56
44198;BME280;30157;55.512;37.764;2023-07-02T09:49:41;98482.34;;;24.36;46.28
44198;BME280;30157;55.512;37.764;2023-07-02T09:52:10;98482.19;;;24.37;46.39
44198;BME280;30157;55.512;37.764;2023-07-02T09:54:36;98482.47;;;24.55;47.04
44198;BME280;30157;55.512;37.764;2023-07-02T09:57:03;98470.06;;;24.56;45.56
44198;BME280;30157;55.512;37.764;2023-07-02T09:59:29;98472.00;;;26.95;40.29
44198;BME280;30157;55.512;37.764;2023-07-02T10:01:56;98464.44;;;28.74;37.05
44198;BME280;30157;55.512;37.764;2023-07-02T10:04:22;98353.34;;;27.66;36.18
44198;BME280;30157;55.512;37.764;2023-07-02T10:06:53;98476.69;;;28.85;34.36
44198;BME280;30157;55.512;37.764;2023-07-02T10:09:20;98449.31;;;29.17;33.52
44198;BME280;30157;55.512;37.764;2023-07-02T10:11:47;98446.06;;;28.53;31.84
44198;BME280;30157;55.512;37.764;2023-07-02T10:14:14;98484.56;;;27.50;34.93
44198;BME280;30157;55.512;37.764;2023-07-02T10:16:53;98476.81;;;26.91;36.03
44198;BME280;30157;55.512;37.764;2023-07-02T10:19:19;98473.81;;;27.04;36.57
44198;BME280;30157;55.512;37.764;2023-07-02T10:21:45;98474.25;;;27.27;36.71
44198;BME280;30157;55.512;37.764;2023-07-02T10:24:14;98473.75;;;27.24;36.84
44198;BME280;30157;55.512;37.764;2023-07-02T10:26:58;98430.72;;;27.19;37.36
44198;BME280;30157;55.512;37.764;2023-07-02T10:29:25;98468.50;;;26.94;38.40
44198;BME280;30157;55.512;37.764;2023-07-02T10:31:52;98472.22;;;26.54;39.64
44198;BME280;30157;55.512;37.764;2023-07-02T10:34:34;98484.69;;;26.14;40.07
44198;BME280;30157;55.512;37.764;2023-07-02T10:37:04;98479.41;;;25.64;41.01
44198;BME280;30157;55.512;37.764;2023-07-02T10:39:30;98479.53;;;25.22;41.53
44198;BME280;30157;55.512;37.764;2023-07-02T10:42:06;98441.59;;;24.79;42.11
44198;BME280;30157;55.512;37.764;2023-07-02T10:44:33;98489.06;;;25.03;42.21
44198;BME280;30157;55.512;37.764;2023-07-02T10:46:59;98451.94;;;24.82;41.81
44198;BME280;30157;55.512;37.764;2023-07-02T10:49:33;98488.09;;;27.03;39.00
44198;BME280;30157;55.512;37.764;2023-07-02T10:52:00;98477.97;;;26.49;39.32
44198;BME280;30157;55.512;37.764;2023-07-02T10:54:26;98416.66;;;25.32;40.63
44198;BME280;30157;55.512;37.764;2023-07-02T10:56:58;98457.03;;;25.26;40.33
44198;BME280;30157;55.512;37.764;2023-07-02T10:59:27;98433.88;;;27.04;37.46
44198;BME280;30157;55.512;37.764;2023-07-02T11:01:53;98303.88;;;27.63;34.76
44198;BME280;30157;55.512;37.764;2023-07-02T11:04:18;98400.53;;;29.41;33.21
44198;BME280;30157;55.512;37.764;2023-07-02T11:06:47;98424.16;;;29.79;32.22
44198;BME280;30157;55.512;37.764;2023-07-02T11:09:16;98480.78;;;30.58;31.25
44198;BME280;30157;55.512;37.764;2023-07-02T11:11:55;98475.94;;;30.62;30.42
44198;BME280;30157;55.512;37.764;2023-07-02T11:14:35;98438.50;;;31.02;29.14
44198;BME280;30157;55.512;37.764;2023-07-02T11:17:05;98435.72;;;31.43;29.91
44198;BME280;30157;55.512;37.764;2023-07-02T11:19:35;98480.53;;;31.09;29.97
44198;BME280;30157;55.512;37.764;2023-07-02T11:22:01;98494.09;;;30.99;30.57
44198;BME280;30157;55.512;37.764;2023-07-02T11:24:32;98496.16;;;30.73;30.68
44198;BME280;30157;55.512;37.764;2023-07-02T11:27:00;98469.31;;;30.97;30.01
44198;BME280;30157;55.512;37.764;2023-07-02T11:29:29;98508.84;;;31.52;29.36
44198;BME280;30157;55.512;37.764;2023-07-02T11:32:04;98496.41;;;31.19;28.30
44198;BME280;30157;55.512;37.764;2023-07-02T11:34:30;98470.84;;;31.08;28.58
44198;BME280;30157;55.512;37.764;2023-07-02T11:36:56;98502.09;;;31.24;28.08
44198;BME280;30157;55.512;37.764;2023-07-02T11:39:21;98435.75;;;30.70;26.94
44198;BME280;30157;55.512;37.764;2023-07-02T11:41:47;98483.22;;;31.09;26.83
44198;BME280;30157;55.512;37.764;2023-07-02T11:44:14;98490.38;;;31.25;27.69
44198;BME280;30157;55.512;37.764;2023-07-02T11:46:41;98364.69;;;30.59;27.39
44198;BME280;30157;55.512;37.764;2023-07-02T11:49:06;98481.81;;;31.30;27.70
44198;BME280;30157;55.512;37.764;2023-07-02T11:51:36;98463.28;;;31.52;26.86
44198;BME280;30157;55.512;37.764;2023-07-02T11:54:05;98479.78;;;31.40;26.96
44198;BME280;30157;55.512;37.764;2023-07-02T11:56:31;98494.78;;;30.27;28.99
44198;BME280;30157;55.512;37.764;2023-07-02T11:58:57;98498.00;;;28.40;31.56
44198;BME280;30157;55.512;37.764;2023-07-02T12:01:23;98481.63;;;28.35;32.12
44198;BME280;30157;55.512;37.764;2023-07-02T12:03:49;98499.97;;;29.61;30.87
44198;BME280;30157;55.512;37.764;2023-07-02T12:06:15;98496.06;;;29.39;30.44
44198;BME280;30157;55.512;37.764;2023-07-02T12:08:40;98502.56;;;27.38;33.72
44198;BME280;30157;55.512;37.764;2023-07-02T12:11:06;98497.78;;;25.87;36.39
44198;BME280;30157;55.512;37.764;2023-07-02T12:13:32;98494.75;;;25.29;38.31
44198;BME280;30157;55.512;37.764;2023-07-02T12:15:58;98472.59;;;26.00;37.61
44198;BME280;30157;55.512;37.764;2023-07-02T12:18:24;98496.22;;;27.95;35.30
44198;BME280;30157;55.512;37.764;2023-07-02T12:20:49;98502.41;;;28.86;34.00
44198;BME280;30157;55.512;37.764;2023-07-02T12:23:15;98472.09;;;28.95;32.68
44198;BME280;30157;55.512;37.764;2023-07-02T12:25:41;98499.00;;;29.02;32.41
44198;BME280;30157;55.512;37.764;2023-07-02T12:28:07;98482.06;;;27.94;33.78
44198;BME280;30157;55.512;37.764;2023-07-02T12:30:32;98371.00;;;26.93;34.26
44198;BME280;30157;55.512;37.764;2023-07-02T12:32:58;98445.16;;;26.78;35.68
44198;BME280;30157;55.512;37.764;2023-07-02T12:35:24;98484.09;;;26.01;36.62
44198;BME280;30157;55.512;37.764;2023-07-02T12:37:51;98451.44;;;25.79;37.12
44198;BME280;30157;55.512;37.764;2023-07-02T12:40:18;98488.41;;;26.02;36.65
44198;BME280;30157;55.512;37.764;2023-07-02T12:42:47;98490.91;;;25.94;36.45
44198;BME280;30157;55.512;37.764;2023-07-02T12:45:14;98472.56;;;25.71;37.18
44198;BME280;30157;55.512;37.764;2023-07-02T12:47:41;98482.28;;;26.02;37.02
44198;BME280;30157;55.512;37.764;2023-07-02T12:50:10;98487.31;;;26.44;36.76